Time;durP1;ratioP1;P1;durP2;ratioP2;P2;SDS_P1;SDS_P2;PMS_P1;PMS_P2;Temp;Humidity;BMP_temperature;BMP_pressure;BME280_temperature;BME280_humidity;BME280_pressure;Samples;Min_cycle;Max_cycle;Signal;HPM_P1;HPM_P2
2022/01/09 00:02:23;;;;;;;35.72;18.83;;;1.00;99.90;;;;;;5029809;28;20045;-75
2022/01/09 00:05:28;;;;;;;33.25;19.30;;;0.90;99.90;;;;;;5029919;28;20045;-75
2022/01/09 00:08:32;;;;;;;36.38;19.17;;;0.90;99.90;;;;;;5029201;28;20095;-75
2022/01/09 00:11:36;;;;;;;31.27;17.92;;;0.90;99.90;;;;;;5029732;28;20049;-75
2022/01/09 00:14:40;;;;;;;36.90;19.23;;;0.90;99.90;;;;;;5029661;28;20112;-75
2022/01/09 00:17:44;;;;;;;35.60;19.45;;;0.90;99.90;;;;;;5029862;28;20049;-75
2022/01/09 00:20:48;;;;;;;36.78;18.40;;;0.80;99.90;;;;;;5029720;28;20120;-75
2022/01/09 00:23:52;;;;;;;31.95;15.00;;;0.90;99.90;;;;;;5029674;28;20121;-75
2022/01/09 00:26:55;;;;;;;26.33;14.90;;;0.90;99.90;;;;;;5029903;28;20045;-75
2022/01/09 00:29:59;;;;;;;20.98;11.57;;;0.90;99.90;;;;;;5029370;28;20048;-75
2022/01/09 00:33:06;;;;;;;19.25;11.02;;;1.00;99.90;;;;;;5029766;28;20048;-75
2022/01/09 00:36:10;;;;;;;16.48;10.73;;;1.20;99.90;;;;;;5029414;28;20037;-75
2022/01/09 00:39:15;;;;;;;29.30;16.15;;;1.20;99.90;;;;;;5032798;28;20049;-75
2022/01/09 00:42:20;;;;;;;25.00;13.90;;;1.30;99.90;;;;;;5032789;28;20496;-75
2022/01/09 00:45:24;;;;;;;34.38;18.30;;;1.10;99.90;;;;;;5032705;28;20045;-75
2022/01/09 00:48:29;;;;;;;31.92;16.98;;;0.80;99.90;;;;;;5032455;28;20060;-75
2022/01/09 00:51:34;;;;;;;35.20;19.38;;;0.60;99.90;;;;;;5032038;28;20076;-74
2022/01/09 00:54:39;;;;;;;34.38;19.63;;;0.30;99.90;;;;;;5033561;28;20053;-75
2022/01/09 00:57:42;;;;;;;42.90;21.58;;;0.10;99.90;;;;;;5033641;28;20048;-75
2022/01/09 01:00:46;;;;;;;37.10;21.13;;;0.00;99.90;;;;;;5033277;28;20052;-75
2022/01/09 01:03:50;;;;;;;40.97;20.10;;;0.00;99.90;;;;;;5032583;28;20053;-75
2022/01/09 01:06:54;;;;;;;32.15;18.15;;;-0.10;99.90;;;;;;5032620;28;20041;-75
2022/01/09 01:09:58;;;;;;;27.25;14.98;;;0.00;99.90;;;;;;5032868;28;20048;-75
2022/01/09 01:13:03;;;;;;;24.13;11.75;;;0.00;99.90;;;;;;5032756;28;20056;-75
2022/01/09 01:16:07;;;;;;;15.57;8.15;;;0.10;99.90;;;;;;5032043;28;20052;-75
2022/01/09 01:19:11;;;;;;;13.23;6.78;;;0.40;99.90;;;;;;5032677;28;20049;-75
2022/01/09 01:22:16;;;;;;;24.13;12.85;;;0.60;99.90;;;;;;5032398;28;20050;-74
2022/01/09 01:25:21;;;;;;;31.48;17.13;;;0.50;99.90;;;;;;5033141;28;20064;-75
2022/01/09 01:28:25;;;;;;;35.25;17.73;;;0.40;99.90;;;;;;5032611;28;20049;-75
2022/01/09 01:31:29;;;;;;;94.85;39.03;;;0.20;99.90;;;;;;5032698;28;20056;-74
2022/01/09 01:34:33;;;;;;;36.72;21.77;;;0.20;99.90;;;;;;5032772;28;20610;-74
2022/01/09 01:37:41;;;;;;;49.63;30.20;;;-0.40;99.90;;;;;;5032498;28;20060;-74
2022/01/09 01:40:45;;;;;;;59.45;29.80;;;-0.90;99.90;;;;;;5032409;28;20064;-75
2022/01/09 01:43:49;;;;;;;54.50;28.63;;;-1.10;99.90;;;;;;5032137;28;20048;-75
2022/01/09 01:46:53;;;;;;;57.58;30.77;;;-1.30;99.90;;;;;;5032515;28;20052;-75
2022/01/09 01:49:57;;;;;;;58.00;31.58;;;-1.20;99.90;;;;;;5031691;28;20040;-75
2022/01/09 01:53:01;;;;;;;48.90;27.98;;;-1.10;99.90;;;;;;5031933;28;20052;-74
2022/01/09 01:56:06;;;;;;;50.30;28.05;;;-1.00;99.90;;;;;;5032727;28;20056;-74
2022/01/09 01:59:10;;;;;;;63.50;33.15;;;-1.00;99.90;;;;;;5031840;28;20524;-74
2022/01/09 02:02:14;;;;;;;55.17;31.00;;;-1.10;99.90;;;;;;5031691;28;20044;-75
2022/01/09 02:05:20;;;;;;;56.15;28.75;;;-1.10;99.90;;;;;;5032280;28;20099;-75
2022/01/09 02:08:24;;;;;;;56.45;29.13;;;-1.10;99.90;;;;;;5031759;28;20040;-75
2022/01/09 02:11:30;;;;;;;49.85;26.55;;;-1.10;99.90;;;;;;5031860;28;20048;-75
2022/01/09 02:14:35;;;;;;;50.13;24.65;;;-1.00;99.90;;;;;;5031878;28;20041;-75
2022/01/09 02:17:43;;;;;;;44.03;22.55;;;-1.00;99.90;;;;;;5031625;28;20040;-75
2022/01/09 02:20:49;;;;;;;45.92;25.45;;;-1.00;99.90;;;;;;5031488;28;20068;-75
2022/01/09 02:23:53;;;;;;;40.35;23.67;;;-0.90;99.90;;;;;;5031416;28;20049;-75
2022/01/09 02:26:57;;;;;;;43.97;22.20;;;-0.80;99.90;;;;;;5031480;28;20040;-75
2022/01/09 02:30:01;;;;;;;42.90;22.90;;;-0.60;99.90;;;;;;5031164;28;20052;-75
2022/01/09 02:33:11;;;;;;;38.17;21.63;;;-0.50;99.90;;;;;;5031408;28;20044;-75
2022/01/09 02:36:16;;;;;;;43.95;22.33;;;-0.40;99.90;;;;;;5031449;28;20072;-75
2022/01/09 02:39:21;;;;;;;38.03;21.13;;;-0.30;99.90;;;;;;5031253;28;20048;-74
2022/01/09 02:42:28;;;;;;;36.25;17.85;;;-0.40;99.90;;;;;;5031150;28;20040;-74
2022/01/09 02:45:33;;;;;;;31.92;17.83;;;-0.60;99.90;;;;;;5031186;28;20049;-75
2022/01/09 02:48:39;;;;;;;35.50;18.67;;;-0.60;99.90;;;;;;5030808;28;20049;-75
2022/01/09 02:51:45;;;;;;;34.15;17.50;;;-0.40;99.90;;;;;;5030995;28;20388;-74
2022/01/09 02:58:11;;;;;;;29.73;16.25;;;-0.50;99.90;;;;;;5030609;28;20393;-75
2022/01/09 03:01:15;;;;;;;32.38;16.77;;;-0.40;99.90;;;;;;5030107;28;20044;-75
2022/01/09 03:04:20;;;;;;;31.13;17.80;;;-0.40;99.90;;;;;;5030955;28;20592;-75
2022/01/09 03:07:24;;;;;;;31.50;16.77;;;-0.40;99.90;;;;;;5031012;28;20044;-75
2022/01/09 03:10:28;;;;;;;31.42;17.13;;;-0.30;99.90;;;;;;5030614;28;20115;-75
2022/01/09 03:13:33;;;;;;;29.27;17.38;;;-0.10;99.90;;;;;;5030749;28;20044;-75
2022/01/09 03:16:38;;;;;;;32.67;17.77;;;-0.20;99.90;;;;;;5030830;28;20392;-75
2022/01/09 03:19:42;;;;;;;36.00;18.52;;;-0.20;99.90;;;;;;5030856;28;20052;-75
2022/01/09 03:22:46;;;;;;;29.15;16.77;;;-0.20;99.90;;;;;;5030461;28;20044;-75
2022/01/09 03:25:51;;;;;;;31.20;18.45;;;-0.20;99.90;;;;;;5030844;28;20041;-75
2022/01/09 03:28:54;;;;;;;34.42;17.75;;;-0.20;99.90;;;;;;5030760;28;20060;-75
2022/01/09 03:31:58;;;;;;;30.95;19.15;;;-0.20;99.90;;;;;;5029987;28;20080;-75
2022/01/09 03:35:04;;;;;;;34.22;19.25;;;-0.30;99.90;;;;;;5031043;28;20063;-75
2022/01/09 03:38:09;;;;;;;36.33;20.05;;;-0.30;99.90;;;;;;5030552;28;20056;-75
2022/01/09 03:41:13;;;;;;;36.00;19.73;;;-0.50;99.90;;;;;;5030304;28;20048;-74
2022/01/09 03:44:17;;;;;;;39.67;20.95;;;-0.60;99.90;;;;;;5030547;28;20405;-74
2022/01/09 03:47:21;;;;;;;35.38;18.60;;;-0.70;99.90;;;;;;5030675;28;20056;-74
2022/01/09 03:50:25;;;;;;;36.78;20.10;;;-0.80;99.90;;;;;;5031000;28;20052;-74
2022/01/09 03:53:31;;;;;;;35.95;17.33;;;-0.60;99.90;;;;;;5030778;28;20056;-75
2022/01/09 03:56:35;;;;;;;35.00;18.55;;;-0.50;99.90;;;;;;5030626;28;20053;-74
2022/01/09 03:59:39;;;;;;;28.00;16.73;;;-0.60;99.90;;;;;;5030226;28;20048;-75
2022/01/09 04:02:43;;;;;;;33.55;18.73;;;-0.40;99.90;;;;;;5030282;28;20045;-74
2022/01/09 04:05:47;;;;;;;28.40;17.20;;;-0.40;99.90;;;;;;5030524;28;20048;-75
2022/01/09 04:08:55;;;;;;;34.35;18.88;;;-0.30;99.90;;;;;;5029897;28;20036;-74
2022/01/09 04:12:03;;;;;;;31.02;17.95;;;-0.40;99.90;;;;;;5031116;28;20044;-75
2022/01/09 04:15:08;;;;;;;31.27;17.92;;;-0.40;99.90;;;;;;5033888;28;20056;-75
2022/01/09 04:18:14;;;;;;;29.70;18.48;;;-0.10;99.90;;;;;;5034220;28;20124;-74
2022/01/09 04:21:18;;;;;;;35.20;20.88;;;-0.30;99.90;;;;;;5033738;28;20052;-74
2022/01/09 04:24:22;;;;;;;41.63;21.65;;;-0.40;99.90;;;;;;5033747;28;20048;-74
2022/01/09 04:27:26;;;;;;;28.45;17.92;;;-0.40;99.90;;;;;;5034000;28;20048;-75
2022/01/09 04:30:30;;;;;;;31.13;17.38;;;-0.30;99.90;;;;;;5033848;28;20392;-74
2022/01/09 04:33:34;;;;;;;33.88;18.15;;;-0.20;99.90;;;;;;5033808;28;20048;-75
2022/01/09 04:36:38;;;;;;;29.23;17.02;;;-0.20;99.90;;;;;;5033404;28;20389;-75
2022/01/09 04:39:42;;;;;;;32.53;18.02;;;-0.30;99.90;;;;;;5032516;28;20713;-74
2022/01/09 04:42:51;;;;;;;33.10;17.65;;;-0.20;99.90;;;;;;5033191;28;20591;-75
2022/01/09 04:45:55;;;;;;;30.00;16.27;;;-0.10;99.90;;;;;;5032916;28;20052;-74
2022/01/09 04:48:59;;;;;;;33.45;18.65;;;0.00;99.90;;;;;;5033317;28;20068;-74
2022/01/09 04:52:07;;;;;;;35.83;20.25;;;0.10;99.90;;;;;;5033432;28;20389;-74
2022/01/09 04:55:11;;;;;;;35.83;20.52;;;0.00;99.90;;;;;;5033041;28;20052;-74
2022/01/09 04:58:15;;;;;;;36.08;20.88;;;-0.10;99.90;;;;;;5033405;28;20044;-74
2022/01/09 05:01:19;;;;;;;39.45;21.40;;;-0.20;99.90;;;;;;5033374;28;20504;-75
2022/01/09 05:04:23;;;;;;;37.13;20.98;;;-0.10;99.90;;;;;;5032425;28;20060;-75
2022/01/09 05:07:27;;;;;;;31.95;17.67;;;-0.20;99.90;;;;;;5033291;28;20040;-75
2022/01/09 05:10:31;;;;;;;32.72;18.13;;;-0.10;99.90;;;;;;5033220;28;20048;-74
2022/01/09 05:13:35;;;;;;;37.95;19.48;;;-0.20;99.90;;;;;;5033136;28;20503;-74
2022/01/09 05:16:43;;;;;;;31.55;19.25;;;-0.10;99.90;;;;;;5032896;28;20412;-74
2022/01/09 05:19:47;;;;;;;35.15;20.90;;;0.00;99.90;;;;;;5033019;28;20080;-74
2022/01/09 05:22:52;;;;;;;33.90;19.85;;;0.00;99.90;;;;;;5032255;28;20052;-75
2022/01/09 05:25:56;;;;;;;30.67;16.90;;;0.20;99.90;;;;;;5032372;28;20044;-74
2022/01/09 05:29:00;;;;;;;31.10;18.10;;;0.30;99.90;;;;;;5032849;28;20049;-74
2022/01/09 05:32:05;;;;;;;29.65;17.38;;;0.30;99.90;;;;;;5032788;28;20052;-75
2022/01/09 05:35:09;;;;;;;27.67;16.95;;;0.30;99.90;;;;;;5032823;28;20049;-74
2022/01/09 05:38:14;;;;;;;35.42;20.15;;;0.30;99.90;;;;;;5032513;28;20044;-75
2022/01/09 05:41:18;;;;;;;34.05;18.98;;;0.10;99.90;;;;;;5032633;28;20484;-74
2022/01/09 05:44:22;;;;;;;33.45;19.75;;;0.20;99.90;;;;;;5032660;28;20053;-74
2022/01/09 05:47:26;;;;;;;38.75;22.58;;;0.20;99.90;;;;;;5032072;28;20048;-74
2022/01/09 05:50:30;;;;;;;43.10;23.33;;;0.20;99.90;;;;;;5032156;28;20055;-74
2022/01/09 05:53:34;;;;;;;40.95;22.13;;;0.10;99.90;;;;;;5032209;28;20048;-75
2022/01/09 05:56:38;;;;;;;34.38;19.63;;;0.20;99.90;;;;;;5031154;28;20052;-75
2022/01/09 05:59:42;;;;;;;35.25;20.70;;;0.30;99.90;;;;;;5032288;28;20048;-75
2022/01/09 06:02:47;;;;;;;33.95;19.20;;;0.40;99.90;;;;;;5032113;28;20066;-75
2022/01/09 06:05:51;;;;;;;34.15;18.95;;;0.40;99.90;;;;;;5031988;28;20068;-75
2022/01/09 06:08:56;;;;;;;30.20;18.23;;;0.40;99.90;;;;;;5032080;28;20495;-74
2022/01/09 06:12:00;;;;;;;37.15;22.27;;;0.50;99.90;;;;;;5031787;28;20055;-74
2022/01/09 06:15:04;;;;;;;44.20;24.98;;;0.50;99.90;;;;;;5031808;28;20044;-74
2022/01/09 06:18:08;;;;;;;49.90;29.00;;;0.30;99.90;;;;;;5031367;28;20048;-74
2022/01/09 06:21:12;;;;;;;51.90;27.70;;;0.20;99.90;;;;;;5031681;28;20053;-74
2022/01/09 06:24:16;;;;;;;46.50;25.65;;;0.20;99.90;;;;;;5031685;28;20043;-74
2022/01/09 06:27:21;;;;;;;44.55;24.05;;;0.20;99.90;;;;;;5031445;28;20666;-75
2022/01/09 06:30:25;;;;;;;41.08;23.52;;;0.40;99.90;;;;;;5031367;28;20048;-74
2022/01/09 06:33:29;;;;;;;38.70;21.30;;;0.50;99.90;;;;;;5030708;28;20397;-74
2022/01/09 06:36:33;;;;;;;32.83;20.10;;;0.50;99.90;;;;;;5031034;28;20056;-74
2022/01/09 06:39:37;;;;;;;40.72;23.40;;;0.60;99.90;;;;;;5031705;28;20392;-73
2022/01/09 06:42:41;;;;;;;39.90;24.17;;;0.60;99.90;;;;;;5031608;28;20053;-74
2022/01/09 06:45:44;;;;;;;39.90;21.60;;;0.60;99.90;;;;;;5031082;28;20039;-75
2022/01/09 06:48:49;;;;;;;39.03;20.30;;;0.70;99.90;;;;;;5031501;28;20064;-75
2022/01/09 06:51:53;;;;;;;30.50;18.15;;;0.60;99.90;;;;;;5031588;28;20047;-74
2022/01/09 06:54:56;;;;;;;34.47;20.00;;;0.70;99.90;;;;;;5031326;28;20053;-74
2022/01/09 06:58:00;;;;;;;28.45;16.88;;;0.80;99.90;;;;;;5031166;28;20404;-74
2022/01/09 07:01:05;;;;;;;30.05;18.27;;;0.80;99.90;;;;;;5030392;28;20315;-73
2022/01/09 07:04:09;;;;;;;29.77;16.25;;;0.80;99.90;;;;;;5031122;28;20045;-73
2022/01/09 07:07:13;;;;;;;33.40;17.73;;;0.90;99.90;;;;;;5031228;28;20060;-73
2022/01/09 07:10:17;;;;;;;28.92;16.88;;;0.90;99.90;;;;;;5031161;28;20052;-73
2022/01/09 07:13:21;;;;;;;26.45;13.88;;;0.90;99.90;;;;;;5031115;28;20543;-73
2022/01/09 07:16:25;;;;;;;24.00;13.43;;;1.10;99.90;;;;;;5031334;28;20044;-74
2022/01/09 07:19:29;;;;;;;15.55;8.25;;;1.30;99.90;;;;;;5031128;28;20052;-73
2022/01/09 07:22:32;;;;;;;10.57;5.68;;;1.50;99.90;;;;;;5031016;28;20048;-74
2022/01/09 07:25:36;;;;;;;6.03;3.88;;;1.70;99.90;;;;;;5030905;28;20049;-74
2022/01/09 07:28:40;;;;;;;6.45;3.40;;;1.90;99.90;;;;;;5030925;28;20037;-74
2022/01/09 07:31:45;;;;;;;5.93;3.28;;;2.20;99.90;;;;;;5031059;28;20046;-73
2022/01/09 07:34:49;;;;;;;51.85;15.10;;;2.40;99.90;;;;;;5031294;28;20041;-73
2022/01/09 07:37:53;;;;;;;24.10;11.90;;;1.50;99.90;;;;;;5030666;28;20048;-73
2022/01/09 07:40:57;;;;;;;23.80;13.43;;;1.40;99.90;;;;;;5030983;28;20484;-74
2022/01/09 07:44:01;;;;;;;20.73;11.98;;;1.30;99.90;;;;;;5030751;28;20048;-73
2022/01/09 07:47:06;;;;;;;21.88;11.60;;;1.40;99.90;;;;;;5033287;28;20040;-73
2022/01/09 07:50:10;;;;;;;25.38;13.90;;;1.30;99.90;;;;;;5035165;28;20048;-73
2022/01/09 07:53:17;;;;;;;30.70;16.80;;;1.30;99.90;;;;;;5035041;28;20052;-73
2022/01/09 07:56:21;;;;;;;103.93;22.52;;;1.30;99.90;;;;;;5033929;28;20044;-73
2022/01/09 07:59:25;;;;;;;30.85;17.13;;;1.20;99.90;;;;;;5034873;28;20056;-73
2022/01/09 08:02:29;;;;;;;599.33;49.72;;;1.20;99.90;;;;;;5034549;28;20047;-73
2022/01/09 08:05:33;;;;;;;564.85;50.97;;;1.10;99.90;;;;;;5034709;28;20040;-73
2022/01/09 08:08:37;;;;;;;1138.80;93.90;;;1.00;99.90;;;;;;5034446;28;20052;-73
2022/01/09 08:11:41;;;;;;;241.30;31.05;;;0.80;99.90;;;;;;5034182;28;20053;-73
2022/01/09 08:14:45;;;;;;;777.47;70.45;;;0.80;99.90;;;;;;5034347;28;20044;-73
2022/01/09 08:17:50;;;;;;;1123.50;92.70;;;0.80;99.90;;;;;;5034409;28;20057;-73
2022/01/09 08:20:54;;;;;;;786.55;63.95;;;0.70;99.90;;;;;;5033503;28;20049;-73
2022/01/09 08:23:58;;;;;;;485.88;47.30;;;0.70;99.90;;;;;;5033869;28;20068;-73
2022/01/09 08:27:02;;;;;;;36.85;18.17;;;0.70;99.90;;;;;;5033064;28;20404;-73
2022/01/09 08:30:07;;;;;;;30.67;16.70;;;0.80;99.90;;;;;;5034203;28;20246;-73
2022/01/09 08:33:11;;;;;;;32.65;18.17;;;0.90;99.90;;;;;;5033685;28;20060;-73
2022/01/09 08:36:15;;;;;;;23.73;14.32;;;1.00;99.90;;;;;;5033101;28;20052;-73
2022/01/09 08:39:19;;;;;;;25.55;14.20;;;1.10;99.90;;;;;;5033280;28;20412;-73
2022/01/09 08:42:23;;;;;;;23.42;13.82;;;1.20;99.90;;;;;;5033499;28;20534;-73
2022/01/09 08:45:28;;;;;;;17.70;10.52;;;1.30;99.90;;;;;;5033757;28;20423;-73
2022/01/09 08:48:32;;;;;;;17.75;10.65;;;1.20;99.90;;;;;;5033815;28;20064;-74
2022/01/09 08:51:37;;;;;;;19.83;11.25;;;1.40;99.90;;;;;;5033859;28;20052;-74
2022/01/09 08:54:41;;;;;;;26.17;14.05;;;1.50;99.90;;;;;;5033582;28;20512;-72
2022/01/09 08:57:45;;;;;;;36.40;15.43;;;1.40;99.90;;;;;;5032170;28;20060;-72
2022/01/09 09:00:50;;;;;;;496.25;41.72;;;1.30;99.90;;;;;;5033534;28;20053;-72
2022/01/09 09:03:54;;;;;;;558.00;47.60;;;1.30;99.90;;;;;;5033203;28;20068;-73
2022/01/09 09:06:58;;;;;;;782.08;65.30;;;1.10;99.90;;;;;;5033664;28;20049;-73
2022/01/09 09:10:03;;;;;;;1193.05;111.05;;;1.10;99.90;;;;;;5033110;28;20048;-73
2022/01/09 09:13:07;;;;;;;905.75;79.78;;;1.00;99.90;;;;;;5033244;28;20072;-73
2022/01/09 09:16:11;;;;;;;315.52;39.90;;;0.90;99.90;;;;;;5033446;28;20523;-73
2022/01/09 09:19:16;;;;;;;44.17;14.18;;;1.10;99.90;;;;;;5033273;28;20052;-74
2022/01/09 09:22:19;;;;;;;283.25;33.22;;;1.10;99.90;;;;;;5033174;28;20049;-74
2022/01/09 09:25:23;;;;;;;268.45;28.77;;;1.20;99.90;;;;;;5033040;28;20036;-73
2022/01/09 09:28:27;;;;;;;112.15;19.27;;;1.20;99.90;;;;;;5031564;28;20276;-73
2022/01/09 09:31:31;;;;;;;233.15;22.70;;;1.30;99.90;;;;;;5033260;28;20052;-73
2022/01/09 09:34:38;;;;;;;23.25;12.18;;;1.20;99.90;;;;;;5032617;28;20044;-74
2022/01/09 09:37:42;;;;;;;34.47;11.70;;;1.20;99.90;;;;;;5032708;28;20503;-73
2022/01/09 09:40:46;;;;;;;18.75;10.20;;;1.20;99.90;;;;;;5032449;28;20040;-73
2022/01/09 09:43:51;;;;;;;18.90;10.63;;;1.20;99.90;;;;;;5032360;28;20044;-74
2022/01/09 09:46:55;;;;;;;21.08;11.77;;;1.30;99.90;;;;;;5032412;28;20392;-74
2022/01/09 09:49:59;;;;;;;24.70;15.88;;;1.30;99.90;;;;;;5032339;28;20048;-74
2022/01/09 09:53:04;;;;;;;25.63;16.25;;;1.30;99.90;;;;;;5031492;28;20396;-74
2022/01/09 09:56:08;;;;;;;12.70;7.75;;;1.30;99.90;;;;;;5032217;28;20064;-75
2022/01/09 09:59:12;;;;;;;14.70;9.07;;;1.30;99.90;;;;;;5031725;28;20045;-74
2022/01/09 10:02:19;;;;;;;13.43;9.27;;;1.40;99.90;;;;;;5032138;28;20041;-74
2022/01/09 10:05:38;;;;;;;9.98;6.78;;;1.40;99.90;;;;;;5032027;28;20044;-74
2022/01/09 10:08:42;;;;;;;10.52;7.15;;;1.50;99.90;;;;;;5031699;28;20037;-74
2022/01/09 10:11:55;;;;;;;11.95;9.18;;;1.60;99.90;;;;;;5031931;28;20041;-73
2022/01/09 10:15:01;;;;;;;8.93;5.78;;;1.60;99.90;;;;;;5031564;28;20038;-74
2022/01/09 10:18:05;;;;;;;6.43;4.40;;;1.60;99.90;;;;;;5031192;28;20046;-73
2022/01/09 10:21:13;;;;;;;6.68;4.38;;;1.70;99.90;;;;;;5031774;28;20045;-73
2022/01/09 10:24:17;;;;;;;5.82;4.10;;;1.70;99.90;;;;;;5031504;28;20037;-73
2022/01/09 10:27:32;;;;;;;5.40;4.15;;;1.80;99.90;;;;;;5032103;28;20042;-73
2022/01/09 10:30:51;;;;;;;7.85;5.75;;;1.90;99.90;;;;;;5030558;28;20037;-73
2022/01/09 10:34:07;;;;;;;9.55;5.97;;;1.80;99.90;;;;;;5031577;28;20045;-73
2022/01/09 10:37:17;;;;;;;8.15;5.65;;;1.90;99.90;;;;;;5031703;28;20362;-73
2022/01/09 10:40:28;;;;;;;7.70;5.10;;;1.80;99.90;;;;;;5031319;28;20365;-72
2022/01/09 10:43:37;;;;;;;10.77;7.97;;;1.70;99.90;;;;;;5031527;28;20397;-72
2022/01/09 10:47:00;;;;;;;8.20;5.38;;;1.70;99.90;;;;;;5031210;28;20049;-73
2022/01/09 10:50:10;;;;;;;6.90;4.82;;;1.70;99.90;;;;;;5030133;28;20041;-73
2022/01/09 10:53:22;;;;;;;8.35;5.88;;;1.70;99.90;;;;;;5030594;28;20045;-72
2022/01/09 10:56:26;;;;;;;10.02;6.82;;;1.70;99.90;;;;;;5030949;28;20033;-72
2022/01/09 10:59:31;;;;;;;6.85;5.18;;;1.80;99.90;;;;;;5029676;28;20045;-72
2022/01/09 11:02:39;;;;;;;7.65;4.88;;;1.90;99.90;;;;;;5031332;28;20042;-72
2022/01/09 11:05:44;;;;;;;5.35;3.60;;;2.00;99.90;;;;;;5031020;28;20033;-73
2022/01/09 11:08:50;;;;;;;9.02;7.20;;;2.10;99.90;;;;;;5030841;28;20034;-72
2022/01/09 11:11:55;;;;;;;7.35;4.07;;;2.20;99.90;;;;;;5030741;28;20041;-73
2022/01/09 11:15:03;;;;;;;16.58;10.98;;;2.30;99.90;;;;;;5030138;28;20045;-73
2022/01/09 11:18:08;;;;;;;17.88;11.45;;;2.40;99.90;;;;;;5029559;28;20052;-72
2022/01/09 11:21:13;;;;;;;44.00;25.05;;;2.40;99.90;;;;;;5030413;28;20392;-72
2022/01/09 11:24:28;;;;;;;14.40;9.55;;;2.40;99.90;;;;;;5030631;28;20052;-72
2022/01/09 11:27:54;;;;;;;9.57;6.93;;;2.50;99.90;;;;;;5030914;28;20040;-72
2022/01/09 11:31:04;;;;;;;13.68;8.20;;;2.50;99.90;;;;;;5029697;28;20045;-72
2022/01/09 11:34:40;;;;;;;8.02;5.68;;;2.50;99.90;;;;;;5030480;28;20054;-72
2022/01/09 11:38:07;;;;;;;59.25;8.50;;;2.60;99.90;;;;;;5030853;28;20041;-72
2022/01/09 11:41:24;;;;;;;117.55;10.60;;;2.70;99.90;;;;;;5030842;28;20074;-72
2022/01/09 11:44:31;;;;;;;481.52;33.15;;;2.60;99.90;;;;;;5030722;28;20396;-73
2022/01/09 11:47:49;;;;;;;511.45;28.77;;;2.30;99.90;;;;;;5030810;28;20396;-73
2022/01/09 11:51:05;;;;;;;415.95;25.73;;;2.20;99.90;;;;;;5030915;28;20048;-73
2022/01/09 11:54:16;;;;;;;59.80;12.45;;;1.90;99.90;;;;;;5030703;28;20052;-73
2022/01/09 11:57:48;;;;;;;36.08;8.90;;;2.10;99.90;;;;;;5030215;28;20048;-73
2022/01/09 12:00:53;;;;;;;551.97;36.75;;;2.20;99.90;;;;;;5030160;28;20041;-73
2022/01/09 12:03:57;;;;;;;104.32;14.02;;;2.00;99.90;;;;;;5030615;28;20048;-73
2022/01/09 12:07:08;;;;;;;49.53;17.98;;;2.00;99.90;;;;;;5030624;28;20531;-73
2022/01/09 12:10:38;;;;;;;441.40;35.63;;;2.20;99.90;;;;;;5030386;28;20392;-73
2022/01/09 12:13:43;;;;;;;20.38;9.98;;;2.20;99.90;;;;;;5030369;28;20064;-73
2022/01/09 12:16:49;;;;;;;32.85;16.65;;;2.30;99.90;;;;;;5030631;28;20041;-73
2022/01/09 12:20:12;;;;;;;24.98;11.00;;;2.40;99.90;;;;;;5030536;28;20047;-73
2022/01/09 12:23:22;;;;;;;19.15;11.25;;;2.50;99.90;;;;;;5030317;28;20056;-72
2022/01/09 12:26:27;;;;;;;31.90;18.40;;;2.50;99.90;;;;;;5030308;28;20044;-73
2022/01/09 12:29:44;;;;;;;17.85;9.88;;;2.60;99.90;;;;;;5030114;28;20380;-73
2022/01/09 12:32:48;;;;;;;15.82;9.73;;;2.50;99.90;;;;;;5030881;28;20049;-73
2022/01/09 12:36:14;;;;;;;24.67;12.57;;;2.80;99.90;;;;;;5034008;28;20049;-73
2022/01/09 12:39:19;;;;;;;25.60;12.98;;;3.10;99.90;;;;;;5034139;28;20048;-73
2022/01/09 12:42:23;;;;;;;16.75;10.18;;;3.30;99.90;;;;;;5021650;28;20076;-73
2022/01/09 12:45:37;;;;;;;39.60;24.67;;;3.70;99.90;;;;;;5034184;28;20045;-73
2022/01/09 12:48:49;;;;;;;34.17;20.25;;;4.40;99.90;;;;;;5033647;28;20149;-73
2022/01/09 12:52:00;;;;;;;22.60;11.73;;;5.10;99.90;;;;;;5033842;28;20044;-73
2022/01/09 12:55:13;;;;;;;16.67;11.13;;;5.70;99.90;;;;;;5033437;28;20160;-72
2022/01/09 12:58:26;;;;;;;13.45;9.00;;;6.20;99.90;;;;;;5033377;28;20044;-73
2022/01/09 13:01:36;;;;;;;10.88;7.57;;;6.40;99.90;;;;;;5033001;28;20056;-73
2022/01/09 13:04:41;;;;;;;9.75;6.35;;;6.40;99.90;;;;;;5033167;28;20048;-73
2022/01/09 13:07:46;;;;;;;13.40;9.57;;;6.20;99.90;;;;;;5033206;28;20033;-73
2022/01/09 13:11:02;;;;;;;34.83;21.90;;;6.10;99.90;;;;;;5033285;28;20033;-73
2022/01/09 13:14:08;;;;;;;19.02;14.18;;;6.10;99.90;;;;;;5033500;28;20048;-73
2022/01/09 13:17:12;;;;;;;19.00;12.23;;;6.30;99.90;;;;;;5033103;28;20056;-73
2022/01/09 13:20:19;;;;;;;49.80;32.55;;;6.20;99.90;;;;;;5032690;28;20052;-73
2022/01/09 13:23:23;;;;;;;28.80;22.08;;;6.10;99.90;;;;;;5031943;28;20045;-72
2022/01/09 13:26:40;;;;;;;29.55;20.73;;;5.90;99.90;;;;;;5032475;28;20048;-73
2022/01/09 13:29:56;;;;;;;38.63;26.02;;;5.80;99.90;;;;;;5032864;28;20407;-73
2022/01/09 13:33:03;;;;;;;19.92;13.15;;;5.70;99.90;;;;;;5032845;28;20444;-73
2022/01/09 13:36:07;;;;;;;9.32;6.25;;;5.70;99.90;;;;;;5033053;28;20048;-73
2022/01/09 13:39:19;;;;;;;5.13;3.85;;;5.70;99.90;;;;;;5032523;28;20041;-73
2022/01/09 13:42:26;;;;;;;4.45;3.08;;;6.00;99.90;;;;;;5031983;28;20041;-72
2022/01/09 13:45:34;;;;;;;4.78;3.45;;;6.00;99.90;;;;;;5031497;28;20046;-72
2022/01/09 13:48:50;;;;;;;7.03;4.95;;;5.70;99.90;;;;;;5032711;28;20041;-73
2022/01/09 13:51:54;;;;;;;7.70;5.32;;;5.30;99.90;;;;;;5032498;28;20045;-72
2022/01/09 13:55:03;;;;;;;4.78;4.20;;;5.10;99.90;;;;;;5032726;28;20477;-72
2022/01/09 13:58:15;;;;;;;6.05;3.80;;;5.00;99.90;;;;;;5031560;28;20033;-72
2022/01/09 14:01:37;;;;;;;6.23;4.63;;;4.80;99.90;;;;;;5032333;28;20045;-73
2022/01/09 14:04:47;;;;;;;7.15;4.43;;;4.60;99.90;;;;;;5032194;28;20041;-73
2022/01/09 14:07:52;;;;;;;5.40;3.63;;;4.50;99.90;;;;;;5032122;28;20033;-73
2022/01/09 14:10:56;;;;;;;6.00;4.35;;;4.40;99.90;;;;;;5032430;28;20366;-73
2022/01/09 14:14:00;;;;;;;6.25;4.18;;;4.30;99.90;;;;;;5032250;28;20484;-73
2022/01/09 14:17:48;;;;;;;4.65;3.40;;;4.40;99.90;;;;;;5032067;28;20053;-72
2022/01/09 14:21:01;;;;;;;5.22;4.10;;;4.50;99.90;;;;;;5031961;28;20037;-72
2022/01/09 14:24:08;;;;;;;6.25;4.55;;;4.50;99.90;;;;;;5031376;28;20037;-73
2022/01/09 14:27:12;;;;;;;5.43;3.78;;;4.40;99.90;;;;;;5031791;28;20041;-73
2022/01/09 14:30:40;;;;;;;4.22;3.38;;;4.40;99.90;;;;;;5031018;28;20237;-73
2022/01/09 14:33:50;;;;;;;5.93;4.00;;;4.40;99.90;;;;;;5031481;28;20377;-73
2022/01/09 14:36:54;;;;;;;5.53;4.00;;;4.40;99.90;;;;;;5031729;28;20041;-73
2022/01/09 14:40:09;;;;;;;6.10;3.85;;;4.40;99.90;;;;;;5031242;28;20038;-73
2022/01/09 14:43:13;;;;;;;5.07;3.97;;;4.40;99.90;;;;;;5030454;28;20045;-73
2022/01/09 14:46:17;;;;;;;5.78;3.92;;;4.40;99.90;;;;;;5031585;28;20038;-73
2022/01/09 14:49:21;;;;;;;6.15;4.63;;;4.30;99.90;;;;;;5030771;28;20033;-73
2022/01/09 14:52:26;;;;;;;4.10;3.35;;;4.20;99.90;;;;;;5031289;28;20029;-73
2022/01/09 14:55:31;;;;;;;7.07;4.28;;;4.00;99.90;;;;;;5030770;28;20057;-73
2022/01/09 14:58:35;;;;;;;4.97;3.83;;;3.80;99.90;;;;;;5030008;28;20041;-73
2022/01/09 15:01:40;;;;;;;6.80;4.85;;;3.60;99.90;;;;;;5030898;28;20373;-73
2022/01/09 15:04:44;;;;;;;5.72;3.90;;;3.40;99.90;;;;;;5030729;28;20377;-73
2022/01/09 15:07:48;;;;;;;6.20;4.20;;;3.30;99.90;;;;;;5031274;28;20034;-75
2022/01/09 15:10:52;;;;;;;3.70;2.65;;;3.20;99.90;;;;;;5030766;28;20041;-73
2022/01/09 15:13:58;;;;;;;5.93;3.78;;;3.10;99.90;;;;;;5030556;28;20045;-72
2022/01/09 15:17:02;;;;;;;9.35;4.63;;;3.00;99.90;;;;;;5030863;28;20385;-73
2022/01/09 15:20:07;;;;;;;17.63;10.63;;;2.90;99.90;;;;;;5030675;28;20365;-72
2022/01/09 15:23:11;;;;;;;9.80;5.85;;;2.90;99.90;;;;;;5031036;28;20112;-73
2022/01/09 15:26:15;;;;;;;4.07;2.97;;;2.90;99.90;;;;;;5030805;28;20037;-72
2022/01/09 15:29:20;;;;;;;3.53;2.92;;;2.80;99.90;;;;;;5030311;28;20033;-73
2022/01/09 15:32:24;;;;;;;5.38;3.22;;;2.70;99.90;;;;;;5030503;28;20045;-73
2022/01/09 15:35:29;;;;;;;4.05;3.22;;;2.70;99.90;;;;;;5030620;28;20038;-73
2022/01/09 15:38:33;;;;;;;4.55;3.58;;;2.60;99.90;;;;;;5030265;28;20492;-72
2022/01/09 15:41:37;;;;;;;4.43;3.30;;;2.60;99.90;;;;;;5030708;28;20038;-73
2022/01/09 15:44:41;;;;;;;4.07;3.10;;;2.50;99.90;;;;;;5029935;28;20042;-72
2022/01/09 15:47:46;;;;;;;4.30;2.90;;;2.50;99.90;;;;;;5030361;28;20377;-73
2022/01/09 15:50:50;;;;;;;4.47;3.10;;;2.50;99.90;;;;;;5030592;28;20492;-73
2022/01/09 15:53:56;;;;;;;3.17;2.45;;;2.40;99.90;;;;;;5030425;28;20046;-72
2022/01/09 15:57:00;;;;;;;3.25;2.33;;;2.40;99.90;;;;;;5030357;28;20037;-73
2022/01/09 16:00:04;;;;;;;3.60;2.58;;;2.40;99.90;;;;;;5030262;28;20390;-72
2022/01/09 16:03:16;;;;;;;3.95;2.90;;;2.40;99.90;;;;;;5030560;28;20034;-72